createdAt,value
2023-04-30T00:02:17.023Z,72.66
2023-04-30T00:04:45.520Z,75.22
2023-04-30T00:07:14.372Z,75.31
2023-04-30T00:09:44.083Z,75.27
2023-04-30T00:12:12.401Z,76.86
2023-04-30T00:14:40.634Z,77.00
2023-04-30T00:17:09.007Z,76.85
2023-04-30T00:19:37.292Z,78.26
2023-04-30T00:22:06.168Z,78.42
2023-04-30T00:24:34.491Z,79.96
2023-04-30T00:27:04.274Z,80.66
2023-04-30T00:29:32.638Z,80.52
2023-04-30T00:32:01.248Z,79.73
2023-04-30T00:34:29.803Z,79.63
2023-04-30T00:36:58.112Z,79.82
2023-04-30T00:39:26.373Z,79.79
2023-04-30T00:41:54.698Z,79.83
2023-04-30T00:44:24.808Z,79.25
2023-04-30T00:46:53.330Z,78.52
2023-04-30T00:49:21.671Z,78.15
2023-04-30T00:51:51.058Z,78.02
2023-04-30T00:54:21.393Z,77.72
2023-04-30T00:56:49.834Z,77.73
2023-04-30T00:59:18.496Z,77.52
2023-04-30T01:01:48.644Z,77.10
2023-04-30T01:04:17.234Z,76.74
2023-04-30T01:06:46.638Z,76.41
2023-04-30T01:09:15.218Z,76.33
2023-04-30T01:11:58.353Z,76.25
2023-04-30T01:14:39.689Z,75.93
2023-04-30T01:17:19.378Z,75.81
2023-04-30T01:19:48.125Z,75.80
2023-04-30T01:22:33.317Z,75.92
2023-04-30T01:25:27.080Z,76.15
2023-04-30T01:28:08.585Z,76.14
2023-04-30T01:30:37.965Z,76.01
2023-04-30T01:33:06.328Z,76.20
2023-04-30T01:36:22.259Z,75.96
2023-04-30T01:39:10.616Z,75.85
2023-04-30T01:41:53.319Z,76.23
2023-04-30T01:44:44.503Z,76.16
2023-04-30T01:47:31.840Z,76.09
2023-04-30T01:50:12.275Z,76.52
2023-04-30T01:52:45.938Z,76.44
2023-04-30T01:55:19.855Z,76.25
2023-04-30T01:57:59.121Z,76.59
2023-04-30T02:00:31.645Z,76.93
2023-04-30T02:03:00.700Z,77.40
2023-04-30T02:05:29.092Z,78.03
2023-04-30T02:07:57.970Z,78.19
2023-04-30T02:10:27.849Z,78.15
2023-04-30T02:12:56.174Z,78.24
2023-04-30T02:15:24.758Z,78.29
2023-04-30T02:17:54.543Z,78.28
2023-04-30T02:20:22.979Z,78.56
2023-04-30T02:22:51.716Z,78.42
2023-04-30T02:25:20.101Z,78.49
2023-04-30T02:27:50.472Z,78.63
2023-04-30T02:30:20.080Z,78.74
2023-04-30T02:32:49.154Z,78.50
2023-04-30T02:35:19.064Z,79.29
2023-04-30T02:37:47.368Z,79.57
2023-04-30T02:40:16.154Z,79.71
2023-04-30T02:42:44.574Z,80.42
2023-04-30T02:45:12.994Z,81.93
2023-04-30T02:47:41.982Z,83.12
2023-04-30T02:50:11.254Z,84.31
2023-04-30T02:52:41.042Z,85.02
2023-04-30T02:55:10.290Z,85.52
2023-04-30T02:57:38.948Z,86.50
2023-04-30T03:00:09.098Z,86.71
2023-04-30T03:02:37.835Z,86.75
2023-04-30T03:05:07.358Z,86.91
2023-04-30T03:07:36.007Z,86.84
2023-04-30T03:10:06.989Z,86.45
2023-04-30T03:12:35.690Z,86.07
2023-04-30T03:15:04.621Z,85.73
2023-04-30T03:17:33.181Z,85.11
2023-04-30T03:20:01.464Z,84.63
2023-04-30T03:22:29.985Z,84.40
2023-04-30T03:24:58.292Z,84.58
2023-04-30T03:27:27.968Z,84.59
2023-04-30T03:29:56.910Z,84.31
2023-04-30T03:32:25.711Z,84.24
2023-04-30T03:34:53.970Z,83.75
2023-04-30T03:37:22.370Z,83.55
2023-04-30T03:39:50.749Z,83.57
2023-04-30T03:42:19.129Z,83.47
2023-04-30T03:44:48.840Z,83.13
2023-04-30T03:47:17.506Z,82.83
2023-04-30T03:49:45.867Z,82.93
2023-04-30T03:52:14.284Z,83.30
2023-04-30T03:54:42.572Z,84.30
2023-04-30T03:57:12.946Z,86.02
2023-04-30T03:59:41.672Z,86.90
2023-04-30T04:02:11.469Z,87.36
2023-04-30T04:04:40.217Z,89.52
2023-04-30T04:07:09.744Z,90.69
2023-04-30T04:09:38.252Z,91.42
2023-04-30T04:12:07.265Z,93.43
2023-04-30T04:14:36.029Z,94.87
2023-04-30T04:17:05.689Z,94.49
2023-04-30T04:19:35.699Z,95.14
2023-04-30T04:22:04.904Z,95.53
2023-04-30T04:24:33.299Z,95.68
2023-04-30T04:27:04.146Z,94.98
2023-04-30T04:29:34.426Z,94.17
2023-04-30T04:32:04.650Z,92.73
2023-04-30T04:34:35.278Z,92.65
2023-04-30T04:37:03.902Z,93.08
2023-04-30T04:39:32.376Z,92.98
2023-04-30T04:42:01.305Z,93.58
2023-04-30T04:44:29.800Z,93.67
2023-04-30T04:46:58.122Z,94.58
2023-04-30T04:49:26.534Z,95.14
2023-04-30T04:51:56.211Z,94.78
2023-04-30T04:54:24.542Z,94.21
2023-04-30T04:56:52.850Z,94.26
2023-04-30T04:59:21.196Z,93.44
2023-04-30T05:01:50.527Z,92.91
2023-04-30T05:04:18.875Z,92.31
2023-04-30T05:06:47.324Z,92.96
2023-04-30T05:09:17.487Z,94.21
2023-04-30T05:11:46.290Z,94.44
2023-04-30T05:14:14.560Z,95.12
2023-04-30T05:16:43.217Z,95.89
2023-04-30T05:19:11.557Z,95.90
2023-04-30T05:21:40.195Z,95.53
2023-04-30T05:24:08.716Z,95.82
2023-04-30T05:26:38.450Z,94.61
2023-04-30T05:29:06.817Z,93.88
2023-04-30T05:31:35.172Z,93.46
2023-04-30T05:34:03.499Z,92.31
2023-04-30T05:36:32.172Z,91.39
2023-04-30T05:39:00.502Z,90.68
2023-04-30T05:41:28.827Z,89.62
2023-04-30T05:43:58.485Z,88.01
2023-04-30T05:46:26.887Z,87.56
2023-04-30T05:48:55.609Z,87.43
2023-04-30T05:51:23.986Z,89.31
2023-04-30T05:53:52.381Z,89.75
2023-04-30T05:56:21.042Z,90.05
2023-04-30T05:58:51.031Z,89.04
2023-04-30T06:01:21.227Z,89.13
2023-04-30T06:03:49.536Z,88.83
2023-04-30T06:06:17.871Z,88.41
2023-04-30T06:08:46.213Z,89.55
2023-04-30T06:11:15.316Z,88.32
2023-04-30T06:13:43.714Z,90.67
2023-04-30T06:16:12.233Z,90.97
2023-04-30T06:18:41.848Z,89.42
2023-04-30T06:21:10.164Z,90.83
2023-04-30T06:23:38.852Z,91.88
2023-04-30T06:26:07.303Z,91.54
2023-04-30T06:28:35.599Z,90.55
2023-04-30T06:31:04.065Z,90.72
2023-04-30T06:33:32.395Z,92.26
2023-04-30T06:36:02.090Z,90.77
2023-04-30T06:38:30.555Z,90.34
2023-04-30T06:40:59.024Z,91.12
2023-04-30T06:43:27.319Z,89.78
2023-04-30T06:45:55.611Z,89.30
2023-04-30T06:48:24.072Z,89.16
2023-04-30T06:50:52.534Z,88.38
2023-04-30T06:53:23.028Z,88.75
2023-04-30T06:55:53.175Z,87.42
2023-04-30T06:58:21.488Z,87.27
2023-04-30T07:00:49.840Z,86.05
2023-04-30T07:03:18.170Z,82.87
2023-04-30T07:05:46.821Z,83.98
2023-04-30T07:08:15.385Z,85.20
2023-04-30T07:10:45.035Z,83.34
2023-04-30T07:13:13.628Z,80.94
2023-04-30T07:15:42.443Z,81.32
2023-04-30T07:18:11.073Z,83.30
2023-04-30T07:20:39.387Z,82.21
2023-04-30T07:23:07.749Z,83.85
2023-04-30T07:25:36.395Z,83.28
2023-04-30T07:28:06.106Z,80.71
2023-04-30T07:30:35.030Z,81.58
2023-04-30T07:33:03.340Z,82.59
2023-04-30T07:35:31.650Z,84.31
2023-04-30T07:37:59.963Z,82.88
2023-04-30T07:40:35.784Z,81.76
2023-04-30T07:43:06.514Z,81.83
2023-04-30T07:45:35.523Z,81.14
2023-04-30T07:48:03.996Z,79.77
2023-04-30T07:50:34.474Z,78.96
2023-04-30T07:53:03.483Z,78.68
2023-04-30T07:55:31.797Z,75.28
2023-04-30T07:58:02.343Z,76.30
2023-04-30T08:00:32.045Z,74.79
2023-04-30T08:03:01.524Z,74.46
2023-04-30T08:05:30.274Z,73.51
2023-04-30T08:07:58.697Z,75.02
2023-04-30T08:10:27.549Z,75.98
2023-04-30T08:12:55.925Z,74.08
2023-04-30T08:15:24.331Z,72.99
2023-04-30T08:17:54.077Z,71.08
2023-04-30T08:20:23.708Z,71.21
2023-04-30T08:22:52.342Z,71.53
2023-04-30T08:25:20.885Z,70.40
2023-04-30T08:27:49.452Z,69.47
2023-04-30T08:30:17.963Z,69.51
2023-04-30T08:32:46.329Z,68.90
2023-04-30T08:35:16.985Z,67.14
2023-04-30T08:37:45.110Z,67.74
2023-04-30T08:40:14.131Z,68.52
2023-04-30T08:42:51.832Z,68.63
2023-04-30T08:45:21.512Z,68.93
2023-04-30T08:47:51.526Z,69.55
2023-04-30T08:50:21.431Z,68.70
2023-04-30T08:52:49.926Z,68.10
2023-04-30T08:55:18.293Z,67.33
2023-04-30T08:57:46.680Z,67.16
2023-04-30T09:00:16.150Z,64.80
2023-04-30T09:02:45.488Z,65.21
2023-04-30T09:05:16.202Z,65.12
2023-04-30T09:10:19.880Z,62.19
2023-04-30T09:13:01.297Z,62.23
2023-04-30T09:15:30.515Z,63.15
2023-04-30T09:18:14.550Z,63.69
2023-04-30T09:20:57.463Z,64.16
2023-04-30T09:23:27.293Z,65.54
2023-04-30T09:25:56.550Z,65.23
2023-04-30T09:28:27.581Z,64.53
2023-04-30T09:30:58.714Z,62.22
2023-04-30T09:33:27.082Z,62.40
2023-04-30T09:35:55.483Z,62.66
2023-04-30T09:38:29.894Z,61.42
2023-04-30T09:41:00.379Z,62.27
2023-04-30T09:43:29.277Z,62.23
2023-04-30T09:46:00.698Z,59.82
2023-04-30T09:48:29.668Z,61.55
2023-04-30T09:50:58.115Z,60.85
2023-04-30T09:53:29.176Z,61.04
2023-04-30T09:55:59.999Z,61.84
2023-04-30T09:58:30.363Z,61.77
2023-04-30T10:01:02.377Z,61.50
2023-04-30T10:03:32.826Z,61.55
2023-04-30T10:06:01.857Z,60.86
2023-04-30T10:08:37.439Z,60.00
2023-04-30T10:11:08.955Z,61.17
2023-04-30T10:13:45.007Z,60.05
2023-04-30T10:16:24.907Z,58.78
2023-04-30T10:18:55.222Z,56.11
2023-04-30T10:21:27.258Z,55.19
2023-04-30T10:23:58.008Z,54.55
2023-04-30T10:26:26.933Z,55.52
2023-04-30T10:28:59.111Z,56.03
2023-04-30T10:31:28.028Z,55.57
2023-04-30T10:34:08.035Z,51.05
2023-04-30T10:36:44.699Z,52.68
2023-04-30T10:39:14.688Z,51.51
2023-04-30T10:41:49.110Z,53.09
2023-04-30T10:44:23.226Z,55.42
2023-04-30T10:46:59.976Z,53.99
2023-04-30T10:49:28.592Z,53.04
2023-04-30T10:52:00.897Z,51.84
2023-04-30T10:54:32.730Z,52.54
2023-04-30T10:57:17.882Z,51.96
2023-04-30T10:59:53.580Z,51.84
2023-04-30T11:02:22.554Z,53.12
2023-04-30T11:05:14.472Z,50.66
2023-04-30T11:07:53.510Z,48.49
2023-04-30T11:10:27.495Z,52.28
2023-04-30T11:12:57.807Z,52.00
2023-04-30T11:15:46.024Z,53.22
2023-04-30T11:18:19.222Z,54.45
2023-04-30T11:20:52.635Z,54.32
2023-04-30T11:23:38.484Z,55.01
2023-04-30T11:26:10.758Z,56.37
2023-04-30T11:28:39.623Z,54.71
2023-04-30T11:31:08.042Z,54.42
2023-04-30T11:33:36.725Z,53.97
2023-04-30T11:36:06.027Z,56.17
2023-04-30T11:38:38.360Z,53.31
2023-04-30T11:41:08.944Z,53.54
2023-04-30T11:43:37.076Z,50.72
2023-04-30T11:46:09.320Z,52.64
2023-04-30T11:48:39.075Z,54.32
2023-04-30T11:51:16.416Z,53.19
2023-04-30T11:53:47.105Z,53.75
2023-04-30T11:56:21.464Z,52.38
2023-04-30T11:58:51.375Z,52.99
2023-04-30T12:01:20.874Z,50.74
2023-04-30T12:03:51.074Z,52.46
2023-04-30T12:06:24.688Z,52.61
2023-04-30T12:08:55.060Z,51.45
2023-04-30T12:11:26.597Z,51.70
2023-04-30T12:13:56.789Z,52.67
2023-04-30T12:16:26.533Z,52.28
2023-04-30T12:18:55.545Z,52.31
2023-04-30T12:21:24.332Z,51.74
2023-04-30T12:23:52.699Z,52.21
2023-04-30T12:26:21.088Z,52.51
2023-04-30T12:28:52.100Z,51.53
2023-04-30T12:31:20.461Z,50.95
2023-04-30T12:33:58.031Z,51.66
2023-04-30T12:36:33.257Z,52.09
2023-04-30T12:39:08.743Z,50.97
2023-04-30T12:41:43.230Z,52.89
2023-04-30T12:44:24.687Z,52.03
2023-04-30T12:46:56.740Z,52.89
2023-04-30T12:49:26.809Z,53.50
2023-04-30T12:52:01.651Z,50.45
2023-04-30T12:54:31.696Z,51.55
2023-04-30T12:57:03.212Z,52.81
2023-04-30T12:59:36.472Z,51.20
2023-04-30T13:02:10.072Z,52.37
2023-04-30T13:04:38.894Z,51.99
2023-04-30T13:07:07.745Z,51.22
2023-04-30T13:09:37.704Z,51.42
2023-04-30T13:12:07.288Z,53.83
2023-04-30T13:14:37.184Z,51.62
2023-04-30T13:17:07.333Z,53.85
2023-04-30T13:19:35.865Z,52.58
2023-04-30T13:22:04.149Z,52.72
2023-04-30T13:24:32.456Z,53.99
2023-04-30T13:27:00.697Z,54.37
2023-04-30T13:29:29.091Z,54.58
2023-04-30T13:31:59.255Z,54.37
2023-04-30T13:34:27.727Z,53.34
2023-04-30T13:36:56.038Z,53.59
2023-04-30T13:39:24.367Z,51.76
2023-04-30T13:41:52.640Z,53.42
2023-04-30T13:44:21.040Z,53.64
2023-04-30T13:46:50.155Z,52.78
2023-04-30T13:49:19.952Z,51.53
2023-04-30T13:51:48.304Z,53.54
2023-04-30T13:54:16.704Z,54.03
2023-04-30T13:56:45.121Z,56.38
2023-04-30T13:59:14.022Z,55.40
2023-04-30T14:01:43.036Z,57.63
2023-04-30T14:04:11.357Z,56.67
2023-04-30T14:06:42.137Z,53.37
2023-04-30T14:09:10.889Z,54.05
2023-04-30T14:11:39.950Z,53.00
2023-04-30T14:14:09.130Z,53.92
2023-04-30T14:16:37.705Z,56.72
2023-04-30T14:19:06.040Z,52.76
2023-04-30T14:21:34.376Z,53.36
2023-04-30T14:24:04.095Z,54.63
2023-04-30T14:26:32.425Z,53.63
2023-04-30T14:29:00.782Z,52.46
2023-04-30T14:31:29.117Z,53.88
2023-04-30T14:33:57.505Z,54.16
2023-04-30T14:36:27.560Z,56.12
2023-04-30T14:38:56.114Z,53.39
2023-04-30T14:41:25.845Z,52.68
2023-04-30T14:43:54.225Z,52.05
2023-04-30T14:46:22.697Z,51.25
2023-04-30T14:48:51.010Z,54.90
2023-04-30T14:51:19.337Z,54.76
2023-04-30T14:53:47.609Z,53.42
2023-04-30T14:56:15.990Z,51.59
2023-04-30T14:58:45.722Z,50.46
2023-04-30T15:01:14.095Z,50.77
2023-04-30T15:03:42.557Z,50.67
2023-04-30T15:06:11.223Z,51.32
2023-04-30T15:08:41.667Z,48.52
2023-04-30T15:11:10.768Z,50.99
2023-04-30T15:13:39.058Z,50.82
2023-04-30T15:16:09.353Z,50.18
2023-04-30T15:18:37.799Z,50.15
2023-04-30T15:21:06.830Z,51.59
2023-04-30T15:23:35.343Z,51.04
2023-04-30T15:26:04.454Z,52.71
2023-04-30T15:28:33.330Z,53.95
2023-04-30T15:31:01.852Z,54.68
2023-04-30T15:33:31.860Z,53.75
2023-04-30T15:36:00.506Z,53.17
2023-04-30T15:38:29.217Z,51.01
2023-04-30T15:40:57.574Z,52.08
2023-04-30T15:43:26.066Z,53.88
2023-04-30T15:45:54.552Z,53.44
2023-04-30T15:48:23.069Z,54.73
2023-04-30T15:50:52.755Z,54.38
2023-04-30T15:53:21.129Z,54.62
2023-04-30T15:55:50.691Z,53.63
2023-04-30T15:58:19.158Z,53.87
2023-04-30T16:00:47.578Z,52.81
2023-04-30T16:03:16.025Z,52.57
2023-04-30T16:05:44.379Z,53.75
2023-04-30T16:08:15.046Z,53.31
2023-04-30T16:10:43.472Z,53.10
2023-04-30T16:13:11.789Z,54.02
2023-04-30T16:15:40.147Z,53.68
2023-04-30T16:18:10.113Z,52.86
2023-04-30T16:20:38.738Z,53.35
2023-04-30T16:23:07.083Z,52.44
2023-04-30T16:25:39.122Z,52.31
2023-04-30T16:28:07.526Z,52.08
2023-04-30T16:30:36.098Z,54.21
2023-04-30T16:33:04.608Z,52.30
2023-04-30T16:35:33.007Z,53.50
2023-04-30T16:38:02.600Z,54.45
2023-04-30T16:40:31.098Z,52.13
2023-04-30T16:43:00.878Z,52.98
2023-04-30T16:45:30.335Z,52.44
2023-04-30T16:47:59.148Z,51.93
2023-04-30T16:50:27.816Z,52.20
2023-04-30T16:52:56.232Z,51.54
2023-04-30T16:55:25.087Z,52.43
2023-04-30T16:57:53.890Z,53.47
2023-04-30T17:00:23.730Z,52.60
2023-04-30T17:02:53.218Z,51.93
2023-04-30T17:05:22.311Z,53.49
2023-04-30T17:07:50.604Z,53.16
2023-04-30T17:10:21.333Z,52.11
2023-04-30T17:12:49.586Z,53.20
2023-04-30T17:15:19.770Z,53.99
2023-04-30T17:17:49.516Z,54.28
2023-04-30T17:20:18.168Z,53.63
2023-04-30T17:22:47.363Z,54.10
2023-04-30T17:25:16.217Z,54.67
2023-04-30T17:27:44.530Z,55.38
2023-04-30T17:30:13.442Z,54.39
2023-04-30T17:32:42.342Z,54.31
2023-04-30T17:35:12.199Z,54.08
2023-04-30T17:37:40.871Z,53.98
2023-04-30T17:40:10.809Z,54.10
2023-04-30T17:42:39.920Z,55.04
2023-04-30T17:45:09.524Z,53.64
2023-04-30T17:47:38.022Z,54.93
2023-04-30T17:50:09.689Z,54.78
2023-04-30T17:52:39.581Z,54.30
2023-04-30T17:55:09.379Z,53.18
2023-04-30T17:57:38.251Z,53.48
2023-04-30T18:00:08.649Z,54.60
2023-04-30T18:02:43.165Z,55.16
2023-04-30T18:05:11.897Z,54.33
2023-04-30T18:07:41.627Z,54.26
2023-04-30T18:10:11.215Z,54.68
2023-04-30T18:12:39.835Z,54.42
2023-04-30T18:15:09.481Z,55.24
2023-04-30T18:17:37.881Z,54.69
2023-04-30T18:20:08.142Z,54.68
2023-04-30T18:22:42.467Z,55.03
2023-04-30T18:25:14.129Z,55.26
2023-04-30T18:27:42.558Z,54.49
2023-04-30T18:30:12.729Z,55.30
2023-04-30T18:32:44.433Z,55.23
2023-04-30T18:35:12.839Z,55.36
2023-04-30T18:37:41.112Z,54.29
2023-04-30T18:40:12.347Z,55.10
2023-04-30T18:42:40.755Z,55.17
2023-04-30T18:45:11.442Z,54.85
2023-04-30T18:47:39.715Z,55.59
2023-04-30T18:50:13.635Z,55.75
2023-04-30T18:52:42.884Z,55.59
2023-04-30T18:55:14.017Z,55.70
2023-04-30T18:57:43.375Z,56.01
2023-04-30T19:00:14.593Z,56.19
2023-04-30T19:02:44.211Z,55.72
2023-04-30T19:05:12.825Z,55.33
2023-04-30T19:07:41.160Z,54.48
2023-04-30T19:10:10.380Z,54.42
2023-04-30T19:12:40.521Z,54.55
2023-04-30T19:15:11.645Z,54.72
2023-04-30T19:17:40.236Z,54.36
2023-04-30T19:20:10.331Z,53.96
2023-04-30T19:22:38.812Z,53.87
2023-04-30T19:25:08.076Z,53.91
2023-04-30T19:27:36.467Z,53.52
2023-04-30T19:30:08.181Z,53.12
2023-04-30T19:32:37.267Z,53.18
2023-04-30T19:35:06.621Z,52.73
2023-04-30T19:37:35.024Z,52.66
2023-04-30T19:40:04.286Z,52.73
2023-04-30T19:42:32.575Z,52.66
2023-04-30T19:45:00.873Z,52.56
2023-04-30T19:47:30.733Z,52.73
2023-04-30T19:49:59.099Z,52.85
2023-04-30T19:52:27.441Z,53.08
2023-04-30T19:54:56.039Z,52.83
2023-04-30T19:57:24.307Z,53.27
2023-04-30T19:59:52.588Z,53.17
2023-04-30T20:02:20.913Z,53.19
2023-04-30T20:04:50.640Z,53.66
2023-04-30T20:07:20.412Z,53.73
2023-04-30T20:09:48.886Z,53.85
2023-04-30T20:12:17.281Z,53.70
2023-04-30T20:14:45.604Z,53.95
2023-04-30T20:17:14.847Z,53.89
2023-04-30T20:19:43.340Z,53.81
2023-04-30T20:22:13.271Z,54.07
2023-04-30T20:24:44.659Z,54.07
2023-04-30T20:27:13.446Z,54.11
2023-04-30T20:29:41.995Z,54.25
2023-04-30T20:32:10.459Z,54.40
2023-04-30T20:34:38.755Z,54.52
2023-04-30T20:37:07.276Z,54.80
2023-04-30T20:39:39.057Z,54.97
2023-04-30T20:42:07.478Z,55.10
2023-04-30T20:44:35.914Z,55.42
2023-04-30T20:47:06.328Z,55.73
2023-04-30T20:49:34.790Z,55.86
2023-04-30T20:52:03.053Z,56.31
2023-04-30T20:54:31.434Z,56.66
2023-04-30T20:57:01.112Z,56.94
2023-04-30T20:59:29.682Z,57.14
2023-04-30T21:01:58.291Z,57.34
2023-04-30T21:04:26.708Z,57.46
2023-04-30T21:06:55.235Z,57.51
2023-04-30T21:09:23.688Z,57.84
2023-04-30T21:11:51.978Z,58.04
2023-04-30T21:14:21.746Z,58.35
2023-04-30T21:16:51.294Z,58.87
2023-04-30T21:19:19.762Z,58.88
2023-04-30T21:21:48.439Z,59.41
2023-04-30T21:24:16.984Z,59.73
2023-04-30T21:26:45.403Z,60.11
2023-04-30T21:29:14.524Z,60.33
2023-04-30T21:31:44.307Z,60.56
2023-04-30T21:34:12.690Z,60.69
2023-04-30T21:36:41.382Z,60.99
2023-04-30T21:39:09.705Z,61.18
2023-04-30T21:41:38.063Z,61.26
2023-04-30T21:44:06.797Z,61.17
2023-04-30T21:46:35.140Z,61.09
2023-04-30T21:49:04.840Z,60.99
2023-04-30T21:51:33.256Z,61.27
2023-04-30T21:54:01.576Z,61.43
2023-04-30T21:56:29.836Z,61.39
2023-04-30T21:58:58.237Z,61.48
2023-04-30T22:01:29.807Z,61.62
2023-04-30T22:03:58.697Z,61.67
2023-04-30T22:06:28.606Z,61.79
2023-04-30T22:08:57.049Z,61.90
2023-04-30T22:11:25.950Z,61.66
2023-04-30T22:13:54.297Z,61.95
2023-04-30T22:16:22.834Z,61.92
2023-04-30T22:18:51.602Z,61.70
2023-04-30T22:21:19.906Z,61.82
2023-04-30T22:23:49.675Z,61.86
2023-04-30T22:26:18.024Z,61.88
2023-04-30T22:28:46.370Z,62.04
2023-04-30T22:31:14.824Z,62.48
2023-04-30T22:33:44.310Z,62.43
2023-04-30T22:36:12.621Z,62.57
2023-04-30T22:38:41.010Z,62.45
2023-04-30T22:41:10.697Z,62.58
2023-04-30T22:43:39.225Z,62.94
2023-04-30T22:46:07.565Z,63.36
2023-04-30T22:48:36.036Z,63.72
2023-04-30T22:51:04.953Z,63.86
2023-04-30T22:53:34.339Z,63.87
2023-04-30T22:56:02.654Z,63.51
2023-04-30T22:58:32.310Z,63.50
2023-04-30T23:01:00.820Z,63.30
2023-04-30T23:03:29.128Z,63.41
2023-04-30T23:06:00.372Z,63.66
2023-04-30T23:08:28.735Z,63.50
2023-04-30T23:10:57.073Z,63.27
2023-04-30T23:13:25.404Z,63.31
2023-04-30T23:15:58.939Z,62.87
2023-04-30T23:18:27.457Z,62.63
2023-04-30T23:20:58.801Z,62.92
2023-04-30T23:23:27.445Z,62.80
2023-04-30T23:25:55.825Z,62.74
2023-04-30T23:28:25.418Z,62.78
2023-04-30T23:30:55.829Z,62.49
2023-04-30T23:33:24.212Z,62.77
2023-04-30T23:35:54.515Z,62.79
2023-04-30T23:38:23.081Z,62.60
2023-04-30T23:40:51.443Z,62.43
2023-04-30T23:43:19.756Z,62.49
2023-04-30T23:45:48.130Z,62.39
2023-04-30T23:48:17.809Z,62.37
2023-04-30T23:50:47.244Z,62.39
2023-04-30T23:53:17.300Z,62.36
2023-04-30T23:55:45.613Z,62.19
2023-04-30T23:58:13.896Z,62.06
